^^
Datos históricos de la estación: Murcia-Puente Tocinos
Diario Informe para Febrero 23, 2019 Unidades:  Métrico    Inglés   Ambas
Diario Semanal Mensual Anual Configurable
  Máximo: Mínimo: Media:
Temperatura: 26.1 °C 10.3 °C 16.3 °C
Punto de rocio: 7.5 °C -3.8 °C 1.2 °C
Humedad: 74% 14% 40%
Velocidad viento: 16.4km/h 0.0km/h 8.3km/h
Racha viento: 29.6km/h - -
Viento- - SSW
Presión: 1027.1 hPa 1021.9 hPa -
Precipitación: 0.0 mm    
Historical Graphs
 
 
Tabla de datos para Febrero 23, 2019
Hora Temperatura Punto de rocio Presión Viento Velocidad viento Racha viento Humedad Intensidad lluvia(por hora) Nubes
00:00 12.2 °C 7.5 °C 1027.1 hPa SW 8.0 km/h 11.3 km/h 73% 0.0 mm CLR
00:05 12.1 °C 7.4 °C 1026.8 hPa SSW 6.9 km/h 11.1 km/h 73% 0.0 mm CLR
00:10 12.1 °C 7.2 °C 1026.8 hPa SW 7.6 km/h 14.8 km/h 72% 0.0 mm CLR
00:15 12.0 °C 7.1 °C 1026.8 hPa WSW 7.6 km/h 14.8 km/h 72% 0.0 mm CLR
00:20 11.9 °C 7.0 °C 1026.7 hPa SW 10.0 km/h 11.1 km/h 72% 0.0 mm CLR
00:25 11.8 °C 7.1 °C 1026.7 hPa WSW 10.0 km/h 18.5 km/h 73% 0.0 mm CLR
00:30 11.7 °C 7.0 °C 1026.7 hPa SW 8.4 km/h 9.3 km/h 73% 0.0 mm CLR
00:35 11.6 °C 6.9 °C 1026.7 hPa SW 8.4 km/h 9.3 km/h 73% 0.0 mm CLR
00:40 11.4 °C 6.7 °C 1026.7 hPa WSW 6.9 km/h 14.8 km/h 73% 0.0 mm CLR
00:45 11.3 °C 6.6 °C 1026.7 hPa SW 6.9 km/h 13.0 km/h 73% 0.0 mm CLR
00:50 11.1 °C 6.6 °C 1026.6 hPa SSW 7.6 km/h 9.5 km/h 74% 0.0 mm CLR
00:55 11.0 °C 6.6 °C 1026.6 hPa SW 7.6 km/h 13.0 km/h 74% 0.0 mm CLR
01:00 10.9 °C 6.4 °C 1026.6 hPa SSW 8.0 km/h 11.3 km/h 74% 0.0 mm CLR
01:05 10.9 °C 6.4 °C 1026.6 hPa SSW 6.9 km/h 11.1 km/h 74% 0.0 mm CLR
01:10 10.9 °C 6.2 °C 1026.6 hPa SSW 7.6 km/h 10.3 km/h 73% 0.0 mm CLR
01:15 10.8 °C 6.2 °C 1026.6 hPa SW 7.6 km/h 9.3 km/h 73% 0.0 mm CLR
01:20 10.7 °C 6.1 °C 1026.5 hPa SW 6.9 km/h 11.1 km/h 73% 0.0 mm CLR
01:25 10.7 °C 6.1 °C 1026.5 hPa SSW 6.9 km/h 13.0 km/h 73% 0.0 mm CLR
01:30 10.7 °C 6.1 °C 1026.5 hPa South 7.6 km/h 9.3 km/h 73% 0.0 mm CLR
01:35 10.6 °C 5.9 °C 1026.4 hPa SSW 7.6 km/h 13.0 km/h 73% 0.0 mm CLR
01:40 10.4 °C 5.9 °C 1026.4 hPa SSW 8.7 km/h 13.0 km/h 74% 0.0 mm CLR
01:45 10.3 °C 5.9 °C 1026.4 hPa SW 8.7 km/h 10.0 km/h 74% 0.0 mm CLR
01:50 10.3 °C 5.7 °C 1026.2 hPa SW 8.4 km/h 11.1 km/h 73% 0.0 mm CLR
01:55 10.4 °C 5.8 °C 1026.2 hPa SSW 8.4 km/h 12.2 km/h 73% 0.0 mm CLR
02:00 10.4 °C 5.6 °C 1026.2 hPa SW 8.0 km/h 12.9 km/h 72% 0.0 mm CLR
02:05 10.5 °C 5.7 °C 1026.1 hPa SW 8.4 km/h 14.8 km/h 72% 0.0 mm CLR
02:10 10.7 °C 5.8 °C 1026.1 hPa SW 8.4 km/h 14.8 km/h 72% 0.0 mm CLR
02:15 10.8 °C 5.7 °C 1026.1 hPa SW 8.4 km/h 11.1 km/h 71% 0.0 mm CLR
02:20 10.9 °C 5.7 °C 1026.1 hPa SW 8.4 km/h 14.8 km/h 70% 0.0 mm CLR
02:25 11.2 °C 5.5 °C 1026.1 hPa SSW 8.4 km/h 13.0 km/h 68% 0.0 mm CLR
02:30 11.3 °C 5.4 °C 1026.1 hPa SSW 9.5 km/h 13.0 km/h 67% 0.0 mm CLR
02:35 11.4 °C 5.5 °C 1025.9 hPa SSW 9.5 km/h 11.1 km/h 67% 0.0 mm CLR
02:40 11.4 °C 5.3 °C 1025.9 hPa SW 7.6 km/h 9.3 km/h 66% 0.0 mm CLR
02:45 11.3 °C 5.2 °C 1025.9 hPa SW 7.6 km/h 9.5 km/h 66% 0.0 mm CLR
02:50 11.3 °C 4.9 °C 1025.9 hPa SW 6.4 km/h 9.5 km/h 65% 0.0 mm CLR
02:55 11.3 °C 4.9 °C 1025.9 hPa SSW 6.4 km/h 13.0 km/h 65% 0.0 mm CLR
03:00 11.3 °C 4.7 °C 1025.9 hPa SW 8.0 km/h 16.1 km/h 64% 0.0 mm CLR
03:05 11.4 °C 4.4 °C 1025.7 hPa SW 7.6 km/h 16.7 km/h 62% 0.0 mm CLR
03:10 11.5 °C 4.2 °C 1025.7 hPa SW 10.0 km/h 14.8 km/h 61% 0.0 mm CLR
03:15 11.5 °C 4.0 °C 1025.7 hPa WSW 10.0 km/h 14.8 km/h 60% 0.0 mm CLR
03:20 11.6 °C 3.6 °C 1025.6 hPa SW 10.3 km/h 11.1 km/h 58% 0.0 mm CLR
03:25 11.7 °C 3.4 °C 1025.6 hPa SW 10.3 km/h 9.3 km/h 57% 0.0 mm CLR
03:30 11.7 °C 3.2 °C 1025.6 hPa South 6.9 km/h 11.1 km/h 56% 0.0 mm CLR
03:35 11.7 °C 3.2 °C 1025.5 hPa SW 6.9 km/h 11.1 km/h 56% 0.0 mm CLR
03:40 11.7 °C 2.9 °C 1025.5 hPa SSW 8.4 km/h 13.0 km/h 55% 0.0 mm CLR
03:45 11.8 °C 2.8 °C 1025.5 hPa SSW 8.4 km/h 11.1 km/h 54% 0.0 mm CLR
03:50 11.9 °C 2.3 °C 1025.4 hPa SW 10.3 km/h 14.8 km/h 52% 0.0 mm CLR
03:55 12.2 °C 1.8 °C 1025.4 hPa SW 10.3 km/h 15.6 km/h 49% 0.0 mm CLR
04:00 12.4 °C 1.4 °C 1025.4 hPa SW 11.3 km/h 16.1 km/h 47% 0.0 mm CLR
04:05 12.7 °C 1.4 °C 1025.4 hPa WSW 11.1 km/h 9.3 km/h 46% 0.0 mm CLR
04:10 12.7 °C 1.7 °C 1025.4 hPa West 7.6 km/h 9.3 km/h 47% 0.0 mm CLR
04:15 12.6 °C 1.3 °C 1025.4 hPa SW 7.6 km/h 16.7 km/h 46% 0.0 mm CLR
04:20 12.8 °C 1.2 °C 1025.4 hPa SW 8.7 km/h 11.1 km/h 45% 0.0 mm CLR
04:25 12.8 °C 1.2 °C 1025.4 hPa SSW 8.7 km/h 11.1 km/h 45% 0.0 mm CLR
04:30 12.9 °C 0.9 °C 1025.4 hPa WSW 8.4 km/h 11.1 km/h 44% 0.0 mm CLR
04:35 12.9 °C 0.6 °C 1025.4 hPa SW 8.4 km/h 14.8 km/h 43% 0.0 mm CLR
04:40 13.1 °C 0.4 °C 1025.4 hPa SW 9.5 km/h 13.0 km/h 42% 0.0 mm CLR
04:45 13.2 °C 0.2 °C 1025.4 hPa SW 9.5 km/h 16.7 km/h 41% 0.0 mm CLR
04:50 13.3 °C 0.3 °C 1025.4 hPa SW 10.3 km/h 13.0 km/h 41% 0.0 mm CLR
04:55 13.3 °C -0.1 °C 1025.4 hPa SW 10.3 km/h 11.1 km/h 40% 0.0 mm CLR
05:00 13.4 °C 0.1 °C 1025.4 hPa SSW 9.7 km/h 12.9 km/h 40% 0.0 mm CLR
05:05 13.4 °C -0.3 °C 1025.5 hPa SW 8.7 km/h 9.3 km/h 39% 0.0 mm CLR
05:10 13.4 °C -0.3 °C 1025.5 hPa SW 6.4 km/h 5.6 km/h 39% 0.0 mm CLR
05:15 13.2 °C -0.1 °C 1025.5 hPa SW 6.4 km/h 9.3 km/h 40% 0.0 mm CLR
05:20 13.1 °C -0.2 °C 1025.6 hPa SW 4.7 km/h 7.4 km/h 40% 0.0 mm CLR
05:25 12.9 °C 0.3 °C 1025.6 hPa SW 4.7 km/h 5.6 km/h 42% 0.0 mm CLR
05:30 12.7 °C 0.4 °C 1025.6 hPa SW 3.9 km/h 3.7 km/h 43% 0.0 mm CLR
05:35 12.3 °C 0.7 °C 1025.7 hPa SW 3.9 km/h   45% 0.0 mm CLR
05:40 12.1 °C 1.1 °C 1025.7 hPa Calm     47% 0.0 mm CLR
05:45 11.8 °C 1.1 °C 1025.7 hPa Calm     48% 0.0 mm CLR
05:50 11.6 °C 0.3 °C 1025.7 hPa Calm     46% 0.0 mm CLR
05:55 11.5 °C 0.3 °C 1025.7 hPa Calm     46% 0.0 mm CLR
06:00 11.4 °C 0.2 °C 1025.7 hPa Calm     46% 0.0 mm CLR
06:05 11.4 °C -0.1 °C 1025.7 hPa Calm     45% 0.0 mm CLR
06:10 11.5 °C -0.1 °C 1025.7 hPa Calm   5.6 km/h 45% 0.0 mm CLR
06:15 11.6 °C 0.1 °C 1025.7 hPa Calm   5.6 km/h 45% 0.0 mm CLR
06:20 11.7 °C 0.2 °C 1025.8 hPa SW 3.2 km/h 5.8 km/h 45% 0.0 mm CLR
06:25 11.8 °C -0.1 °C 1025.8 hPa SW 3.2 km/h 7.4 km/h 44% 0.0 mm CLR
06:30 11.8 °C -0.1 °C 1025.8 hPa South 4.7 km/h 7.4 km/h 44% 0.0 mm CLR
06:35 11.8 °C -0.1 °C 1025.8 hPa South 4.7 km/h 9.3 km/h 44% 0.0 mm CLR
06:40 11.8 °C -0.1 °C 1025.8 hPa South 6.4 km/h 8.4 km/h 44% 0.0 mm CLR
06:45 11.8 °C -0.4 °C 1025.8 hPa SSW 6.4 km/h 7.4 km/h 43% 0.0 mm CLR
06:50 11.9 °C -0.6 °C 1025.8 hPa SSW 6.4 km/h 9.3 km/h 42% 0.0 mm CLR
06:55 12.1 °C -0.4 °C 1025.8 hPa SSW 6.4 km/h 7.4 km/h 42% 0.0 mm CLR
07:00 12.1 °C -0.8 °C 1025.8 hPa SSW 4.8 km/h 9.7 km/h 41% 0.0 mm CLR
07:05 12.2 °C -1.0 °C 1025.9 hPa SW 5.0 km/h 7.4 km/h 40% 0.0 mm CLR
07:10 12.4 °C -0.8 °C 1025.9 hPa SW 6.4 km/h 11.1 km/h 40% 0.0 mm CLR
07:15 12.4 °C -0.8 °C 1025.9 hPa SW 6.4 km/h 11.1 km/h 40% 0.0 mm CLR
07:20 12.4 °C -1.2 °C 1026.0 hPa SW 6.9 km/h 9.3 km/h 39% 0.0 mm CLR
07:25 12.4 °C -1.2 °C 1026.0 hPa SW 6.9 km/h 7.4 km/h 39% 0.0 mm CLR
07:30 12.4 °C -1.2 °C 1026.0 hPa SW 6.4 km/h 7.4 km/h 39% 0.0 mm CLR
07:35 12.4 °C -1.2 °C 1026.1 hPa SW 6.4 km/h 10.3 km/h 39% 0.0 mm CLR
07:40 12.4 °C -1.2 °C 1026.1 hPa SW 5.8 km/h 11.1 km/h 39% 0.0 mm CLR
07:45 12.4 °C -1.2 °C 1026.1 hPa SW 5.8 km/h 9.3 km/h 39% 0.0 mm CLR
07:50 12.2 °C -1.0 °C 1026.2 hPa SW 7.6 km/h 9.5 km/h 40% 0.0 mm CLR
07:55 12.1 °C -1.1 °C 1026.2 hPa SW 7.6 km/h 9.3 km/h 40% 0.0 mm CLR
08:00 12.1 °C -1.1 °C 1026.2 hPa SW 8.0 km/h 9.7 km/h 40% 0.0 mm CLR
08:05 12.1 °C -1.1 °C 1026.3 hPa South 7.6 km/h 11.1 km/h 40% 0.0 mm CLR
08:10 12.0 °C -1.6 °C 1026.3 hPa SSW 6.9 km/h 11.1 km/h 39% 0.0 mm CLR
08:15 12.0 °C -1.6 °C 1026.3 hPa SSW 6.9 km/h 9.3 km/h 39% 0.0 mm CLR
08:20 11.9 °C -1.3 °C 1026.4 hPa SW 7.6 km/h 9.3 km/h 40% 0.0 mm CLR
08:25 11.9 °C -1.3 °C 1026.4 hPa SW 7.6 km/h 7.6 km/h 40% 0.0 mm CLR
08:30 11.9 °C -1.3 °C 1026.4 hPa SW 6.4 km/h 13.0 km/h 40% 0.0 mm CLR
08:35 12.2 °C -1.4 °C 1026.5 hPa SW 6.4 km/h 11.1 km/h 39% 0.0 mm CLR
08:40 12.4 °C -1.9 °C 1026.5 hPa SSW 6.9 km/h 13.0 km/h 37% 0.0 mm CLR
08:45 12.8 °C -1.6 °C 1026.5 hPa SW 6.9 km/h 11.1 km/h 37% 0.0 mm CLR
08:50 13.1 °C -1.7 °C 1026.6 hPa SSW 8.7 km/h 11.1 km/h 36% 0.0 mm CLR
08:55 13.2 °C -1.6 °C 1026.6 hPa SSE 8.7 km/h 13.0 km/h 36% 0.0 mm CLR
09:00 13.3 °C -1.5 °C 1026.6 hPa SSW 8.0 km/h 11.3 km/h 36% 0.0 mm CLR
09:05 13.4 °C -1.4 °C 1026.8 hPa SW 8.4 km/h 14.8 km/h 36% 0.0 mm CLR
09:10 13.5 °C -1.3 °C 1026.8 hPa SSW 7.6 km/h 9.3 km/h 36% 0.0 mm CLR
09:15 13.7 °C -1.5 °C 1026.8 hPa SSW 7.6 km/h 13.0 km/h 35% 0.0 mm CLR
09:20 13.9 °C -1.7 °C 1026.8 hPa WSW 7.6 km/h 13.0 km/h 34% 0.0 mm CLR
09:25 14.2 °C -1.4 °C 1026.8 hPa SSW 7.6 km/h 13.0 km/h 34% 0.0 mm CLR
09:30 14.4 °C -1.7 °C 1026.8 hPa SSW 8.7 km/h 18.5 km/h 33% 0.0 mm CLR
09:35 14.6 °C -1.5 °C 1026.9 hPa SW 8.7 km/h 13.0 km/h 33% 0.0 mm CLR
09:40 14.9 °C -1.3 °C 1026.9 hPa SW 9.5 km/h 16.7 km/h 33% 0.0 mm CLR
09:45 15.2 °C -1.4 °C 1026.9 hPa SW 9.5 km/h 13.0 km/h 32% 0.0 mm CLR
09:50 15.5 °C -1.6 °C 1027.0 hPa SSW 8.7 km/h 13.0 km/h 31% 0.0 mm CLR
09:55 15.8 °C -1.3 °C 1027.0 hPa SSW 8.7 km/h 13.0 km/h 31% 0.0 mm CLR
10:00 15.9 °C -1.2 °C 1027.0 hPa SSW 9.7 km/h 14.5 km/h 31% 0.0 mm CLR
10:05 16.1 °C -1.5 °C 1027.0 hPa South 8.7 km/h 11.1 km/h 30% 0.0 mm CLR
10:10 16.4 °C -1.2 °C 1027.0 hPa SSW 9.5 km/h 9.5 km/h 30% 0.0 mm CLR
10:15 16.6 °C -1.1 °C 1027.0 hPa SW 9.5 km/h 11.1 km/h 30% 0.0 mm CLR
10:20 16.8 °C -0.9 °C 1026.9 hPa SW 6.9 km/h 11.1 km/h 30% 0.0 mm CLR
10:25 17.0 °C -0.7 °C 1026.9 hPa SSW 6.9 km/h 13.0 km/h 30% 0.0 mm CLR
10:30 17.2 °C -0.6 °C 1026.9 hPa SW 7.6 km/h 14.8 km/h 30% 0.0 mm CLR
10:35 17.5 °C -0.8 °C 1026.9 hPa SW 7.6 km/h 11.1 km/h 29% 0.0 mm CLR
10:40 17.7 °C -0.6 °C 1026.9 hPa WSW 6.4 km/h 9.3 km/h 29% 0.0 mm CLR
10:45 18.0 °C -0.8 °C 1026.9 hPa SW 6.4 km/h 14.8 km/h 28% 0.0 mm CLR
10:50 18.2 °C -1.1 °C 1026.8 hPa WSW 7.6 km/h 13.0 km/h 27% 0.0 mm CLR
10:55 18.4 °C -0.9 °C 1026.8 hPa WSW 7.6 km/h 14.8 km/h 27% 0.0 mm CLR
11:00 18.7 °C -1.2 °C 1026.8 hPa WSW 9.7 km/h 20.9 km/h 26% 0.0 mm CLR
11:05 18.9 °C -1.1 °C 1026.7 hPa WSW 8.7 km/h 16.7 km/h 26% 0.0 mm CLR
11:10 19.1 °C -0.9 °C 1026.7 hPa WSW 11.1 km/h 14.8 km/h 26% 0.0 mm CLR
11:15 19.3 °C -1.2 °C 1026.7 hPa WNW 11.1 km/h 13.0 km/h 25% 0.0 mm CLR
11:20 19.6 °C -1.6 °C 1026.6 hPa WSW 10.0 km/h 16.7 km/h 24% 0.0 mm CLR
11:25 19.8 °C -1.9 °C 1026.6 hPa West 10.0 km/h 24.1 km/h 23% 0.0 mm CLR
11:30 20.1 °C -2.3 °C 1026.6 hPa WNW 13.0 km/h 20.4 km/h 22% 0.0 mm CLR
11:35 20.3 °C -2.1 °C 1026.5 hPa WNW 13.0 km/h 22.2 km/h 22% 0.0 mm CLR
11:40 20.4 °C -2.1 °C 1026.5 hPa WSW 12.2 km/h 16.7 km/h 22% 0.0 mm CLR
11:45 20.5 °C -1.9 °C 1026.5 hPa West 12.2 km/h 18.5 km/h 22% 0.0 mm CLR
11:50 20.6 °C -1.9 °C 1026.3 hPa SSW 12.2 km/h 22.2 km/h 22% 0.0 mm CLR
11:55 20.7 °C -2.4 °C 1026.3 hPa West 12.2 km/h 22.2 km/h 21% 0.0 mm CLR
12:00 20.8 °C -2.3 °C 1026.3 hPa West 12.9 km/h 27.4 km/h 21% 0.0 mm CLR
12:05 20.8 °C -2.3 °C 1026.2 hPa West 13.0 km/h 24.1 km/h 21% 0.0 mm CLR
12:10 20.9 °C -2.3 °C 1026.2 hPa West 14.0 km/h 20.4 km/h 21% 0.0 mm CLR
12:15 21.1 °C -2.1 °C 1026.2 hPa West 14.0 km/h 24.1 km/h 21% 0.0 mm CLR
12:20 21.2 °C -2.0 °C 1026.0 hPa West 13.0 km/h 24.1 km/h 21% 0.0 mm CLR
12:25 21.2 °C -2.0 °C 1026.0 hPa West 13.0 km/h 20.4 km/h 21% 0.0 mm CLR
12:30 21.4 °C -1.8 °C 1026.0 hPa WNW 13.0 km/h 19.8 km/h 21% 0.0 mm CLR
12:35 21.4 °C -1.8 °C 1025.8 hPa NW 13.0 km/h 14.8 km/h 21% 0.0 mm CLR
12:40 21.6 °C -2.3 °C 1025.8 hPa WNW 11.9 km/h 20.4 km/h 20% 0.0 mm CLR
12:45 21.6 °C -2.3 °C 1025.8 hPa WSW 11.9 km/h 22.2 km/h 20% 0.0 mm CLR
12:50 21.7 °C -2.3 °C 1025.5 hPa WSW 14.0 km/h 18.5 km/h 20% 0.0 mm CLR
12:55 21.9 °C -2.1 °C 1025.5 hPa West 14.0 km/h 20.4 km/h 20% 0.0 mm CLR
13:00 22.1 °C -1.9 °C 1025.5 hPa West 11.3 km/h 27.4 km/h 20% 0.0 mm CLR
13:05 22.0 °C -2.0 °C 1025.2 hPa NW 11.9 km/h 13.0 km/h 20% 0.0 mm CLR
13:10 22.2 °C -1.8 °C 1025.2 hPa WNW 11.9 km/h 9.5 km/h 20% 0.0 mm CLR
13:15 22.3 °C -2.4 °C 1025.2 hPa NNW 11.9 km/h 13.0 km/h 19% 0.0 mm CLR
13:20 22.3 °C -2.4 °C 1025.0 hPa WNW 8.4 km/h 13.0 km/h 19% 0.0 mm CLR
13:25 22.6 °C -2.2 °C 1025.0 hPa WNW 8.4 km/h 20.4 km/h 19% 0.0 mm CLR
13:30 22.6 °C -2.2 °C 1025.0 hPa WSW 9.5 km/h 16.7 km/h 19% 0.0 mm CLR
13:35 22.8 °C -2.1 °C 1024.7 hPa WNW 9.5 km/h 13.7 km/h 19% 0.0 mm CLR
13:40 23.0 °C -1.9 °C 1024.7 hPa NNW 10.0 km/h 11.1 km/h 19% 0.0 mm CLR
13:45 23.1 °C -1.8 °C 1024.7 hPa NW 10.0 km/h 9.3 km/h 19% 0.0 mm CLR
13:50 23.2 °C -2.4 °C 1024.4 hPa West 6.4 km/h 16.7 km/h 18% 0.0 mm CLR
13:55 23.2 °C -2.4 °C 1024.4 hPa West 6.4 km/h 13.0 km/h 18% 0.0 mm CLR
14:00 23.2 °C -2.4 °C 1024.4 hPa WNW 9.7 km/h 14.5 km/h 18% 0.0 mm CLR
14:05 23.3 °C -2.4 °C 1024.2 hPa West 10.0 km/h 13.0 km/h 18% 0.0 mm CLR
14:10 23.4 °C -2.3 °C 1024.2 hPa WNW 6.4 km/h 9.3 km/h 18% 0.0 mm CLR
14:15 23.7 °C -2.1 °C 1024.2 hPa WSW 6.4 km/h 11.9 km/h 18% 0.0 mm CLR
14:20 23.6 °C -2.1 °C 1023.8 hPa NNW 8.4 km/h 14.8 km/h 18% 0.0 mm CLR
14:25 23.7 °C -2.8 °C 1023.8 hPa West 8.4 km/h 14.8 km/h 17% 0.0 mm CLR
14:30 23.7 °C -2.1 °C 1023.8 hPa WSW 8.7 km/h 11.1 km/h 18% 0.0 mm CLR
14:35 23.8 °C -1.9 °C 1023.6 hPa South 8.7 km/h 9.3 km/h 18% 0.0 mm CLR
14:40 24.2 °C -2.4 °C 1023.6 hPa SW 6.9 km/h 24.1 km/h 17% 0.0 mm CLR
14:45 24.2 °C -2.4 °C 1023.6 hPa NW 6.9 km/h 13.0 km/h 17% 0.0 mm CLR
14:50 24.2 °C -2.4 °C 1023.4 hPa NW 9.5 km/h 3.7 km/h 17% 0.0 mm CLR
14:55 24.4 °C -2.3 °C 1023.4 hPa West 9.5 km/h 11.1 km/h 17% 0.0 mm CLR
15:00 24.4 °C -2.3 °C 1023.4 hPa WNW 4.8 km/h 9.7 km/h 17% 0.0 mm CLR
15:05 24.7 °C -2.0 °C 1023.1 hPa WNW 5.8 km/h 7.4 km/h 17% 0.0 mm CLR
15:10 24.9 °C -2.7 °C 1023.1 hPa WNW 3.9 km/h 3.7 km/h 16% 0.0 mm CLR
15:15 25.1 °C -2.5 °C 1023.1 hPa WSW 3.9 km/h 14.8 km/h 16% 0.0 mm CLR
15:20 25.1 °C -2.5 °C 1022.8 hPa WSW 5.0 km/h 14.8 km/h 16% 0.0 mm CLR
15:25 25.1 °C -2.5 °C 1022.8 hPa WSW 5.0 km/h 13.0 km/h 16% 0.0 mm CLR
15:30 25.2 °C -2.4 °C 1022.8 hPa South 7.6 km/h 13.0 km/h 16% 0.0 mm CLR
15:35 25.2 °C -2.4 °C 1022.5 hPa WNW 7.6 km/h 11.1 km/h 16% 0.0 mm CLR
15:40 25.2 °C -2.4 °C 1022.5 hPa SSE 8.4 km/h 13.0 km/h 16% 0.0 mm CLR
15:45 25.3 °C -2.3 °C 1022.5 hPa NNW 8.4 km/h 11.1 km/h 16% 0.0 mm CLR
15:50 25.4 °C -2.3 °C 1022.3 hPa WNW 8.4 km/h 7.6 km/h 16% 0.0 mm CLR
15:55 25.7 °C -2.9 °C 1022.3 hPa WNW 8.4 km/h 7.4 km/h 15% 0.0 mm CLR
16:00 25.9 °C -2.7 °C 1022.3 hPa West 4.8 km/h 11.3 km/h 15% 0.0 mm CLR
16:05 25.8 °C -2.8 °C 1022.1 hPa WSW 5.8 km/h 22.2 km/h 15% 0.0 mm CLR
16:10 25.7 °C -3.8 °C 1022.1 hPa WNW 8.4 km/h 7.4 km/h 14% 0.0 mm CLR
16:15 25.7 °C -2.9 °C 1022.1 hPa WSW 8.4 km/h 12.2 km/h 15% 0.0 mm CLR
16:20 25.9 °C -2.7 °C 1022.0 hPa WNW 8.4 km/h 18.5 km/h 15% 0.0 mm CLR
16:25 25.9 °C -2.7 °C 1022.0 hPa WNW 8.4 km/h 14.8 km/h 15% 0.0 mm CLR
16:30 25.8 °C -3.7 °C 1022.0 hPa WNW 10.0 km/h 16.7 km/h 14% 0.0 mm CLR
16:35 25.8 °C -3.7 °C 1022.0 hPa WNW 10.0 km/h 9.3 km/h 14% 0.0 mm CLR
16:40 25.8 °C -3.7 °C 1022.0 hPa NW 7.6 km/h 7.4 km/h 14% 0.0 mm CLR
16:45 25.9 °C -3.7 °C 1022.0 hPa WNW 7.6 km/h 5.6 km/h 14% 0.0 mm CLR
16:50 26.1 °C -3.5 °C 1022.0 hPa NE 4.7 km/h 9.3 km/h 14% 0.0 mm CLR
16:55 25.5 °C 2.2 °C 1022.0 hPa NE 4.7 km/h 27.8 km/h 22% 0.0 mm CLR
17:00 24.7 °C 2.8 °C 1022.0 hPa North 11.3 km/h 27.4 km/h 24% 0.0 mm CLR
17:05 24.2 °C 2.9 °C 1021.9 hPa North 11.1 km/h 20.4 km/h 25% 0.0 mm CLR
17:10 23.9 °C 2.1 °C 1021.9 hPa NNE 11.1 km/h 20.4 km/h 24% 0.0 mm CLR
17:15 23.5 °C 2.3 °C 1021.9 hPa NE 11.1 km/h 22.2 km/h 25% 0.0 mm CLR
17:20 23.2 °C 2.1 °C 1022.0 hPa NNE 15.6 km/h 29.6 km/h 25% 0.0 mm CLR
17:25 22.8 °C 2.3 °C 1022.0 hPa NE 15.6 km/h 20.4 km/h 26% 0.0 mm CLR
17:30 22.5 °C 1.5 °C 1022.0 hPa NE 16.4 km/h 27.8 km/h 25% 0.0 mm CLR
17:35 22.2 °C 1.8 °C 1022.2 hPa NE 16.4 km/h 24.1 km/h 26% 0.0 mm CLR
17:40 21.9 °C 1.5 °C 1022.2 hPa NNE 16.4 km/h 18.5 km/h 26% 0.0 mm CLR
17:45 21.5 °C 1.2 °C 1022.2 hPa NNE 16.4 km/h 24.1 km/h 26% 0.0 mm CLR
17:50 21.2 °C 0.9 °C 1022.3 hPa NE 16.1 km/h 20.4 km/h 26% 0.0 mm CLR
17:55 21.1 °C 1.3 °C 1022.3 hPa NE 16.1 km/h 20.4 km/h 27% 0.0 mm CLR
18:00 20.9 °C 1.2 °C 1022.3 hPa NE 12.9 km/h 27.4 km/h 27% 0.0 mm CLR
18:05 20.6 °C 1.9 °C 1022.4 hPa NNE 13.7 km/h 20.4 km/h 29% 0.0 mm CLR
18:10 20.2 °C 1.6 °C 1022.4 hPa NNE 14.8 km/h 20.4 km/h 29% 0.0 mm CLR
18:15 19.8 °C 1.7 °C 1022.4 hPa NE 14.8 km/h 24.1 km/h 30% 0.0 mm CLR
18:20 19.4 °C 0.9 °C 1022.7 hPa NE 13.7 km/h 22.2 km/h 29% 0.0 mm CLR
18:25 19.2 °C 1.2 °C 1022.7 hPa North 13.7 km/h 25.9 km/h 30% 0.0 mm CLR
18:30 19.0 °C 1.0 °C 1022.7 hPa NE 15.6 km/h 20.4 km/h 30% 0.0 mm CLR
18:35 18.8 °C 1.3 °C 1022.7 hPa NE 15.6 km/h 20.4 km/h 31% 0.0 mm CLR
18:40 18.6 °C 1.6 °C 1022.7 hPa NNE 15.6 km/h 24.1 km/h 32% 0.0 mm CLR
18:45 18.2 °C 1.7 °C 1022.7 hPa NE 15.6 km/h 24.1 km/h 33% 0.0 mm CLR
18:50 18.0 °C 1.9 °C 1022.9 hPa NE 16.4 km/h 25.6 km/h 34% 0.0 mm CLR
18:55 17.8 °C 2.1 °C 1022.9 hPa NE 16.4 km/h 20.4 km/h 35% 0.0 mm CLR
19:00 17.6 °C 2.3 °C 1022.9 hPa NE 16.1 km/h 24.1 km/h 36% 0.0 mm CLR
19:05 17.3 °C 2.8 °C 1023.1 hPa NNE 16.1 km/h 21.7 km/h 38% 0.0 mm CLR
19:10 17.1 °C 3.4 °C 1023.1 hPa NE 15.6 km/h 18.5 km/h 40% 0.0 mm CLR
19:15 16.9 °C 3.9 °C 1023.1 hPa NE 15.6 km/h 16.7 km/h 42% 0.0 mm CLR
19:20 16.7 °C 4.1 °C 1023.3 hPa NE 14.0 km/h 20.4 km/h 43% 0.0 mm CLR
19:25 16.5 °C 4.2 °C 1023.3 hPa NNE 14.0 km/h 18.5 km/h 44% 0.0 mm CLR
19:30 16.3 °C 4.7 °C 1023.3 hPa NNE 14.0 km/h 17.2 km/h 46% 0.0 mm CLR
19:35 16.1 °C 5.1 °C 1023.5 hPa NE 14.0 km/h 18.5 km/h 48% 0.0 mm CLR
19:40 15.9 °C 5.2 °C 1023.5 hPa NE 13.7 km/h 18.5 km/h 49% 0.0 mm CLR
19:45 15.7 °C 5.9 °C 1023.5 hPa NE 13.7 km/h 24.1 km/h 52% 0.0 mm CLR
19:50 15.5 °C 5.9 °C 1023.7 hPa NE 13.7 km/h 22.2 km/h 53% 0.0 mm CLR
19:55 15.4 °C 6.1 °C 1023.7 hPa NNE 13.7 km/h 25.9 km/h 54% 0.0 mm CLR
20:00 15.3 °C 6.3 °C 1023.7 hPa NE 14.5 km/h 22.5 km/h 55% 0.0 mm CLR
20:05 15.3 °C 6.1 °C 1023.8 hPa NNE 14.8 km/h 16.7 km/h 54% 0.0 mm CLR
20:10 15.2 °C 5.7 °C 1023.8 hPa NE 13.7 km/h 16.7 km/h 53% 0.0 mm CLR
20:15 15.2 °C 5.1 °C 1023.8 hPa NE 13.7 km/h 14.8 km/h 51% 0.0 mm CLR
20:20 15.2 °C 4.8 °C 1023.9 hPa NNE 10.3 km/h 14.8 km/h 50% 0.0 mm CLR
20:25 15.2 °C 4.6 °C 1023.9 hPa NNE 10.3 km/h 15.6 km/h 49% 0.0 mm CLR
20:30 15.1 °C 4.4 °C 1023.9 hPa NNE 10.0 km/h 9.3 km/h 49% 0.0 mm CLR
20:35 15.1 °C 4.4 °C 1024.0 hPa NNE 10.0 km/h 7.4 km/h 49% 0.0 mm CLR
20:40 14.9 °C 4.6 °C 1024.0 hPa NNE 7.6 km/h 9.5 km/h 50% 0.0 mm CLR
20:45 14.8 °C 4.2 °C 1024.0 hPa NE 7.6 km/h 9.3 km/h 49% 0.0 mm CLR
20:50 14.8 °C 4.2 °C 1024.0 hPa ENE 6.9 km/h 9.3 km/h 49% 0.0 mm CLR
20:55 14.8 °C 3.9 °C 1024.0 hPa NE 6.9 km/h 9.5 km/h 48% 0.0 mm CLR
21:00 14.8 °C 3.6 °C 1024.0 hPa NE 4.8 km/h 11.3 km/h 47% 0.0 mm CLR
21:05 14.7 °C 4.4 °C 1024.3 hPa NNE 5.8 km/h 7.4 km/h 50% 0.0 mm CLR
21:10 14.5 °C 4.5 °C 1024.3 hPa North 5.8 km/h 4.7 km/h 51% 0.0 mm CLR
21:15 14.4 °C 4.7 °C 1024.3 hPa North 5.8 km/h 4.7 km/h 52% 0.0 mm CLR
21:20 14.3 °C 4.8 °C 1024.4 hPa North 2.9 km/h 5.6 km/h 53% 0.0 mm CLR
21:25 14.1 °C 4.9 °C 1024.4 hPa NW 2.9 km/h 7.4 km/h 54% 0.0 mm CLR
21:30 14.1 °C 4.7 °C 1024.4 hPa NW 4.7 km/h 7.4 km/h 53% 0.0 mm CLR
21:35 14.1 °C 4.9 °C 1024.6 hPa NNW 4.7 km/h 5.6 km/h 54% 0.0 mm CLR
21:40 14.0 °C 4.8 °C 1024.6 hPa NNW 3.9 km/h   54% 0.0 mm CLR
21:45 13.9 °C 4.7 °C 1024.6 hPa NNW 3.9 km/h 1.9 km/h 54% 0.0 mm CLR
21:50 13.9 °C 4.7 °C 1024.7 hPa Calm   3.7 km/h 54% 0.0 mm CLR
21:55 14.0 °C 4.8 °C 1024.7 hPa Calm   5.6 km/h 54% 0.0 mm CLR
22:00 14.0 °C 4.6 °C 1024.7 hPa NNE 1.6 km/h 6.4 km/h 53% 0.0 mm CLR
22:05 14.0 °C 4.6 °C 1025.0 hPa ESE 2.3 km/h 3.9 km/h 53% 0.0 mm CLR
22:10 14.0 °C 4.6 °C 1025.0 hPa ESE 2.9 km/h   53% 0.0 mm CLR
22:15 14.0 °C 4.6 °C 1025.0 hPa ESE 2.9 km/h 7.4 km/h 53% 0.0 mm CLR
22:20 13.9 °C 4.2 °C 1025.1 hPa ESE 2.9 km/h 3.9 km/h 52% 0.0 mm CLR
22:25 13.9 °C 3.9 °C 1025.1 hPa ESE 2.9 km/h 4.7 km/h 51% 0.0 mm CLR
22:30 13.9 °C 3.9 °C 1025.1 hPa SE 3.2 km/h 7.4 km/h 51% 0.0 mm CLR
22:35 13.9 °C 3.9 °C 1025.2 hPa SE 3.2 km/h 5.6 km/h 51% 0.0 mm CLR
22:40 13.9 °C 3.6 °C 1025.2 hPa SE 4.7 km/h 7.4 km/h 50% 0.0 mm CLR
22:45 13.8 °C 3.6 °C 1025.2 hPa SE 4.7 km/h 5.6 km/h 50% 0.0 mm CLR
22:50 13.7 °C 3.4 °C 1025.3 hPa SE 3.9 km/h 3.9 km/h 50% 0.0 mm CLR
22:55 13.7 °C 3.7 °C 1025.3 hPa SE 3.9 km/h   51% 0.0 mm CLR
23:00 13.7 °C 3.7 °C 1025.3 hPa SE 1.6 km/h 6.4 km/h 51% 0.0 mm CLR
23:05 13.7 °C 3.7 °C 1025.4 hPa WSW 2.3 km/h 3.9 km/h 51% 0.0 mm CLR
23:10 13.6 °C 3.9 °C 1025.4 hPa WSW 3.2 km/h 5.6 km/h 52% 0.0 mm CLR
23:15 13.6 °C 3.7 °C 1025.4 hPa WSW 3.2 km/h 5.6 km/h 51% 0.0 mm CLR
23:20 13.6 °C 3.7 °C 1025.4 hPa WSW 4.7 km/h 3.7 km/h 51% 0.0 mm CLR
23:25 13.6 °C 3.7 °C 1025.4 hPa WSW 4.7 km/h   51% 0.0 mm CLR
23:30 13.6 °C 3.7 °C 1025.4 hPa Calm     51% 0.0 mm CLR
23:35 13.5 °C 4.1 °C 1025.5 hPa Calm     53% 0.0 mm CLR
23:40 13.3 °C 4.2 °C 1025.5 hPa Calm     54% 0.0 mm CLR
23:45 13.1 °C 3.7 °C 1025.5 hPa Calm   4.7 km/h 53% 0.0 mm CLR
23:50 12.9 °C 3.6 °C 1025.5 hPa SW 2.9 km/h 5.6 km/h 53% 0.0 mm CLR
23:55 12.7 °C 3.3 °C 1025.5 hPa SW 2.9 km/h 3.7 km/h 53% 0.0 mm CLR
Murcia-Puente Tocinos, España
Compliments of Weather Underground - 2.75 mb

La estación de MeteoMurcia.com, publica sus datos en los siguientes proyectos:

Weather Underground PWS IMURCIAP2 Meteoclimatic www.awekas.at

W3Counter
Web Analytics